createdAt,value
2022-12-12T00:02:16.853Z,100.00
2022-12-12T00:04:43.386Z,100.00
2022-12-12T00:07:10.194Z,100.00
2022-12-12T00:09:36.654Z,100.00
2022-12-12T00:12:03.166Z,100.00
2022-12-12T00:14:29.640Z,100.00
2022-12-12T00:16:56.101Z,100.00
2022-12-12T00:19:22.579Z,100.00
2022-12-12T00:21:49.815Z,100.00
2022-12-12T00:24:16.312Z,100.00
2022-12-12T00:26:42.776Z,100.00
2022-12-12T00:29:10.014Z,100.00
2022-12-12T00:31:36.593Z,100.00
2022-12-12T00:34:03.101Z,100.00
2022-12-12T00:36:30.060Z,100.00
2022-12-12T00:38:56.713Z,100.00
2022-12-12T00:41:23.230Z,100.00
2022-12-12T00:43:49.842Z,100.00
2022-12-12T00:46:17.867Z,100.00
2022-12-12T00:48:44.434Z,100.00
2022-12-12T00:51:12.827Z,100.00
2022-12-12T00:53:39.388Z,100.00
2022-12-12T00:56:06.194Z,100.00
2022-12-12T00:58:32.702Z,100.00
2022-12-12T01:01:06.254Z,100.00
2022-12-12T01:03:34.030Z,100.00
2022-12-12T01:06:00.599Z,100.00
2022-12-12T01:08:27.308Z,100.00
2022-12-12T01:10:53.888Z,100.00
2022-12-12T01:13:20.362Z,100.00
2022-12-12T01:15:47.179Z,100.00
2022-12-12T01:18:14.235Z,100.00
2022-12-12T01:20:41.139Z,100.00
2022-12-12T01:23:07.642Z,100.00
2022-12-12T01:25:34.193Z,100.00
2022-12-12T01:28:00.662Z,100.00
2022-12-12T01:30:27.409Z,100.00
2022-12-12T01:32:55.063Z,100.00
2022-12-12T01:35:22.201Z,100.00
2022-12-12T01:37:49.357Z,100.00
2022-12-12T01:40:21.216Z,100.00
2022-12-12T01:42:47.786Z,100.00
2022-12-12T01:45:51.933Z,100.00
2022-12-12T01:48:19.154Z,100.00
2022-12-12T01:50:45.626Z,100.00
2022-12-12T01:53:12.215Z,100.00
2022-12-12T01:55:38.671Z,100.00
2022-12-12T01:58:05.136Z,100.00
2022-12-12T02:00:31.667Z,100.00
2022-12-12T02:02:58.180Z,100.00
2022-12-12T02:05:27.890Z,100.00
2022-12-12T02:07:54.411Z,100.00
2022-12-12T02:10:21.129Z,100.00
2022-12-12T02:12:47.583Z,100.00
2022-12-12T02:15:14.414Z,100.00
2022-12-12T02:18:03.407Z,100.00
2022-12-12T02:20:39.886Z,100.00
2022-12-12T02:23:39.417Z,100.00
2022-12-12T02:26:36.963Z,100.00
2022-12-12T02:29:25.675Z,100.00
2022-12-12T02:31:52.694Z,100.00
2022-12-12T02:34:26.132Z,100.00
2022-12-12T02:37:04.734Z,100.00
2022-12-12T02:39:43.988Z,100.00
2022-12-12T02:42:34.005Z,100.00
2022-12-12T02:45:04.009Z,100.00
2022-12-12T02:47:30.952Z,100.00
2022-12-12T02:50:09.117Z,100.00
2022-12-12T02:52:36.178Z,100.00
2022-12-12T02:55:03.089Z,100.00
2022-12-12T02:57:29.544Z,100.00
2022-12-12T03:00:07.307Z,100.00
2022-12-12T03:02:48.802Z,100.00
2022-12-12T03:06:03.102Z,100.00
2022-12-12T03:08:55.229Z,100.00
2022-12-12T03:11:53.976Z,100.00
2022-12-12T03:14:27.254Z,100.00
2022-12-12T03:17:02.031Z,100.00
2022-12-12T03:19:29.216Z,100.00
2022-12-12T03:22:14.488Z,100.00
2022-12-12T03:24:46.868Z,100.00
2022-12-12T03:27:26.878Z,100.00
2022-12-12T03:30:03.630Z,100.00
2022-12-12T03:32:34.676Z,100.00
2022-12-12T03:35:07.202Z,100.00
2022-12-12T03:37:39.103Z,100.00
2022-12-12T03:40:13.977Z,100.00
2022-12-12T03:42:43.865Z,100.00
2022-12-12T03:45:48.274Z,100.00
2022-12-12T03:48:27.113Z,100.00
2022-12-12T03:50:56.031Z,100.00
2022-12-12T03:53:36.378Z,100.00
2022-12-12T03:56:42.769Z,100.00
2022-12-12T03:59:11.477Z,100.00
2022-12-12T04:01:48.378Z,100.00
2022-12-12T04:04:27.658Z,100.00
2022-12-12T04:07:12.346Z,100.00
2022-12-12T04:09:57.613Z,100.00
2022-12-12T04:12:47.613Z,100.00
2022-12-12T04:15:14.121Z,100.00
2022-12-12T04:18:04.833Z,100.00
2022-12-12T04:21:01.522Z,100.00
2022-12-12T04:23:51.566Z,100.00
2022-12-12T04:26:39.868Z,100.00
2022-12-12T04:29:11.709Z,100.00
2022-12-12T04:31:46.274Z,100.00
2022-12-12T04:34:15.458Z,100.00
2022-12-12T04:36:41.943Z,100.00
2022-12-12T04:39:08.403Z,100.00
2022-12-12T04:41:34.889Z,100.00
2022-12-12T04:44:02.026Z,100.00
2022-12-12T04:46:28.566Z,100.00
2022-12-12T04:48:58.048Z,100.00
2022-12-12T04:51:31.271Z,100.00
2022-12-12T04:54:03.131Z,100.00
2022-12-12T04:56:29.778Z,100.00
2022-12-12T04:58:56.723Z,100.00
2022-12-12T05:01:53.193Z,100.00
2022-12-12T05:04:55.528Z,100.00
2022-12-12T05:07:39.247Z,100.00
2022-12-12T05:10:16.428Z,100.00
2022-12-12T05:12:45.072Z,100.00
2022-12-12T05:15:11.979Z,100.00
2022-12-12T05:17:49.054Z,100.00
2022-12-12T05:20:15.620Z,100.00
2022-12-12T05:22:42.137Z,100.00
2022-12-12T05:25:08.828Z,100.00
2022-12-12T05:27:35.319Z,100.00
2022-12-12T05:30:01.809Z,100.00
2022-12-12T05:32:28.286Z,100.00
2022-12-12T05:34:54.754Z,100.00
2022-12-12T05:37:21.217Z,100.00
2022-12-12T05:39:48.020Z,100.00
2022-12-12T05:42:14.532Z,100.00
2022-12-12T05:44:41.404Z,100.00
2022-12-12T05:47:08.226Z,100.00
2022-12-12T05:49:34.707Z,100.00
2022-12-12T05:52:01.973Z,100.00
2022-12-12T05:54:28.450Z,100.00
2022-12-12T05:56:54.901Z,100.00
2022-12-12T05:59:21.394Z,100.00
2022-12-12T06:01:47.851Z,100.00
2022-12-12T06:04:14.426Z,100.00
2022-12-12T06:06:40.934Z,100.00
2022-12-12T06:09:07.466Z,100.00
2022-12-12T06:11:33.927Z,100.00
2022-12-12T06:14:00.443Z,100.00
2022-12-12T06:16:26.938Z,100.00
2022-12-12T06:18:54.137Z,100.00
2022-12-12T06:21:20.951Z,100.00
2022-12-12T06:23:47.471Z,100.00
2022-12-12T06:26:15.107Z,100.00
2022-12-12T06:28:41.670Z,100.00
2022-12-12T06:31:11.585Z,100.00
2022-12-12T06:33:38.618Z,100.00
2022-12-12T06:36:08.475Z,100.00
2022-12-12T06:38:35.617Z,100.00
2022-12-12T06:41:12.722Z,100.00
2022-12-12T06:43:39.534Z,100.00
2022-12-12T06:46:07.314Z,100.00
2022-12-12T06:48:34.653Z,100.00
2022-12-12T06:51:05.994Z,100.00
2022-12-12T06:53:32.493Z,100.00
2022-12-12T06:55:58.949Z,100.00
2022-12-12T06:58:25.441Z,100.00
2022-12-12T07:00:55.252Z,100.00
2022-12-12T07:03:21.729Z,100.00
2022-12-12T07:05:48.264Z,100.00
2022-12-12T07:08:15.391Z,100.00
2022-12-12T07:10:42.327Z,100.00
2022-12-12T07:13:08.849Z,100.00
2022-12-12T07:15:41.327Z,100.00
2022-12-12T07:18:08.025Z,100.00
2022-12-12T07:20:34.499Z,100.00
2022-12-12T07:23:01.034Z,100.00
2022-12-12T07:25:27.511Z,100.00
2022-12-12T07:27:53.964Z,100.00
2022-12-12T07:30:20.474Z,100.00
2022-12-12T07:32:46.922Z,100.00
2022-12-12T07:35:13.717Z,100.00
2022-12-12T07:37:40.381Z,100.00
2022-12-12T07:40:07.209Z,100.00
2022-12-12T07:42:33.656Z,100.00
2022-12-12T07:45:00.198Z,100.00
2022-12-12T07:47:26.669Z,100.00
2022-12-12T07:49:54.458Z,100.00
2022-12-12T07:52:21.568Z,100.00
2022-12-12T07:54:48.035Z,100.00
2022-12-12T07:57:14.502Z,100.00
2022-12-12T07:59:41.027Z,100.00
2022-12-12T08:02:07.527Z,100.00
2022-12-12T08:04:34.100Z,100.00
2022-12-12T08:07:06.844Z,100.00
2022-12-12T08:09:36.649Z,100.00
2022-12-12T08:12:03.176Z,100.00
2022-12-12T08:14:29.779Z,100.00
2022-12-12T08:16:56.318Z,100.00
2022-12-12T08:19:22.789Z,100.00
2022-12-12T08:21:49.278Z,100.00
2022-12-12T08:24:15.844Z,100.00
2022-12-12T08:26:42.884Z,100.00
2022-12-12T08:29:09.437Z,100.00
2022-12-12T08:31:35.983Z,100.00
2022-12-12T08:34:02.493Z,100.00
2022-12-12T08:36:30.458Z,100.00
2022-12-12T08:38:58.434Z,100.00
2022-12-12T08:41:25.167Z,100.00
2022-12-12T08:43:52.476Z,100.00
2022-12-12T08:46:19.688Z,100.00
2022-12-12T08:48:46.987Z,100.00
2022-12-12T08:51:13.932Z,100.00
2022-12-12T08:53:40.588Z,100.00
2022-12-12T08:56:07.353Z,100.00
2022-12-12T08:58:33.804Z,100.00
2022-12-12T09:01:00.260Z,100.00
2022-12-12T09:03:29.393Z,100.00
2022-12-12T09:05:56.293Z,100.00
2022-12-12T09:08:22.815Z,100.00
2022-12-12T09:10:50.054Z,100.00
2022-12-12T09:13:16.832Z,100.00
2022-12-12T09:15:43.637Z,100.00
2022-12-12T09:18:10.104Z,100.00
2022-12-12T09:20:36.608Z,100.00
2022-12-12T09:23:03.075Z,100.00
2022-12-12T09:25:29.548Z,100.00
2022-12-12T09:27:56.180Z,100.00
2022-12-12T09:30:22.713Z,100.00
2022-12-12T09:32:49.202Z,100.00
2022-12-12T09:35:16.212Z,100.00
2022-12-12T09:37:42.834Z,100.00
2022-12-12T09:40:13.109Z,100.00
2022-12-12T09:42:39.933Z,100.00
2022-12-12T09:45:06.978Z,100.00
2022-12-12T09:47:40.817Z,100.00
2022-12-12T09:50:12.335Z,100.00
2022-12-12T09:52:38.995Z,100.00
2022-12-12T09:55:20.542Z,100.00
2022-12-12T09:57:52.466Z,100.00
2022-12-12T10:00:19.153Z,100.00
2022-12-12T10:02:54.827Z,100.00
2022-12-12T10:05:24.213Z,100.00
2022-12-12T10:07:56.116Z,100.00
2022-12-12T10:10:31.032Z,100.00
2022-12-12T10:12:58.272Z,100.00
2022-12-12T10:15:38.470Z,100.00
2022-12-12T10:18:13.054Z,100.00
2022-12-12T10:20:51.198Z,100.00
2022-12-12T10:23:35.593Z,100.00
2022-12-12T10:26:05.720Z,100.00
2022-12-12T10:28:32.194Z,100.00
2022-12-12T10:31:02.088Z,100.00
2022-12-12T10:33:43.902Z,100.00
2022-12-12T10:36:37.159Z,100.00
2022-12-12T10:39:06.546Z,100.00
2022-12-12T10:41:40.277Z,100.00
2022-12-12T10:44:25.726Z,100.00
2022-12-12T10:47:06.317Z,100.00
2022-12-12T10:49:32.906Z,100.00
2022-12-12T10:52:01.177Z,100.00
2022-12-12T10:54:27.993Z,100.00
2022-12-12T10:57:11.106Z,100.00
2022-12-12T10:59:54.735Z,100.00
2022-12-12T11:02:27.813Z,100.00
2022-12-12T11:04:59.612Z,100.00
2022-12-12T11:07:26.070Z,100.00
2022-12-12T11:09:57.648Z,100.00
2022-12-12T11:12:36.188Z,100.00
2022-12-12T11:15:06.483Z,100.00
2022-12-12T11:17:33.920Z,100.00
2022-12-12T11:20:02.448Z,100.00
2022-12-12T11:22:31.150Z,100.00
2022-12-12T11:29:08.003Z,100.00
2022-12-12T11:31:34.475Z,100.00
2022-12-12T11:34:02.066Z,100.00
2022-12-12T11:36:34.578Z,100.00
2022-12-12T11:39:01.553Z,100.00
2022-12-12T11:41:28.012Z,100.00
2022-12-12T11:43:56.414Z,100.00
2022-12-12T11:46:30.339Z,100.00
2022-12-12T11:49:01.070Z,100.00
2022-12-12T11:51:41.079Z,100.00
2022-12-12T11:54:14.850Z,100.00
2022-12-12T11:56:49.211Z,99.75
2022-12-12T12:00:00.780Z,99.11
2022-12-12T12:02:50.243Z,98.29
2022-12-12T12:05:35.698Z,98.33
2022-12-12T12:08:18.138Z,96.83
2022-12-12T12:11:06.791Z,97.29
2022-12-12T12:13:55.563Z,97.74
2022-12-12T12:17:01.407Z,96.51
2022-12-12T12:20:05.795Z,95.64
2022-12-12T12:22:40.809Z,94.48
2022-12-12T12:25:15.179Z,95.81
2022-12-12T12:28:26.506Z,96.09
2022-12-12T12:31:14.080Z,99.45
2022-12-12T12:33:52.993Z,100.00
2022-12-12T12:36:31.856Z,100.00
2022-12-12T12:39:03.639Z,100.00
2022-12-12T12:41:58.937Z,100.00
2022-12-12T12:44:37.407Z,100.00
2022-12-12T12:47:15.984Z,100.00
2022-12-12T12:49:45.986Z,100.00
2022-12-12T12:52:17.033Z,100.00
2022-12-12T12:54:47.512Z,100.00
2022-12-12T12:57:25.046Z,100.00
2022-12-12T12:59:52.800Z,100.00
2022-12-12T13:02:56.280Z,100.00
2022-12-12T13:05:27.100Z,100.00
2022-12-12T13:07:56.496Z,100.00
2022-12-12T13:10:24.749Z,100.00
2022-12-12T13:13:14.761Z,100.00
2022-12-12T13:15:46.626Z,100.00
2022-12-12T13:18:14.375Z,100.00
2022-12-12T13:20:42.463Z,100.00
2022-12-12T13:23:33.055Z,100.00
2022-12-12T13:26:36.997Z,100.00
2022-12-12T13:29:26.339Z,100.00
2022-12-12T13:32:17.703Z,100.00
2022-12-12T13:34:46.422Z,100.00
2022-12-12T13:37:15.124Z,100.00
2022-12-12T13:39:41.574Z,100.00
2022-12-12T13:42:08.929Z,100.00
2022-12-12T13:44:38.254Z,100.00
2022-12-12T13:47:31.515Z,100.00
2022-12-12T13:50:10.056Z,100.00
2022-12-12T13:52:42.778Z,100.00
2022-12-12T13:55:18.323Z,100.00
2022-12-12T13:58:01.587Z,100.00
2022-12-12T14:00:48.763Z,100.00
2022-12-12T14:03:29.186Z,100.00
2022-12-12T14:05:55.962Z,100.00
2022-12-12T14:08:29.916Z,100.00
2022-12-12T14:11:01.597Z,100.00
2022-12-12T14:13:41.833Z,100.00
2022-12-12T14:16:20.104Z,99.28
2022-12-12T14:18:49.508Z,100.00
2022-12-12T14:21:16.642Z,100.00
2022-12-12T14:23:47.089Z,100.00
2022-12-12T14:26:28.669Z,100.00
2022-12-12T14:29:17.092Z,100.00
2022-12-12T14:32:11.065Z,100.00
2022-12-12T14:35:12.801Z,100.00
2022-12-12T14:38:03.729Z,100.00
2022-12-12T14:40:32.322Z,100.00
2022-12-12T14:43:23.272Z,100.00
2022-12-12T14:45:50.003Z,100.00
2022-12-12T14:48:27.292Z,100.00
2022-12-12T14:50:56.356Z,100.00
2022-12-12T14:53:28.918Z,100.00
2022-12-12T14:56:00.225Z,100.00
2022-12-12T14:58:28.344Z,100.00
2022-12-12T15:00:57.317Z,100.00
2022-12-12T15:03:29.556Z,100.00
2022-12-12T15:06:40.904Z,100.00
2022-12-12T15:09:13.739Z,100.00
2022-12-12T15:11:40.663Z,100.00
2022-12-12T15:14:15.225Z,100.00
2022-12-12T15:16:48.606Z,100.00
2022-12-12T15:19:35.453Z,100.00
2022-12-12T15:22:01.900Z,100.00
2022-12-12T15:24:29.431Z,100.00
2022-12-12T15:26:59.160Z,100.00
2022-12-12T15:29:29.819Z,100.00
2022-12-12T15:32:06.955Z,100.00
2022-12-12T15:34:41.232Z,100.00
2022-12-12T15:37:25.717Z,100.00
2022-12-12T15:40:02.876Z,100.00
2022-12-12T15:42:29.416Z,100.00
2022-12-12T15:44:56.028Z,100.00
2022-12-12T15:47:22.499Z,100.00
2022-12-12T15:49:48.911Z,100.00
2022-12-12T15:52:19.803Z,100.00
2022-12-12T15:54:47.755Z,100.00
2022-12-12T15:57:16.779Z,100.00
2022-12-12T15:59:43.234Z,100.00
2022-12-12T16:02:23.481Z,100.00
2022-12-12T16:05:26.114Z,100.00
2022-12-12T16:07:52.667Z,100.00
2022-12-12T16:10:23.524Z,100.00
2022-12-12T16:13:04.659Z,100.00
2022-12-12T16:15:37.521Z,100.00
2022-12-12T16:18:07.905Z,100.00
2022-12-12T16:20:43.943Z,100.00
2022-12-12T16:23:18.647Z,100.00
2022-12-12T16:25:45.156Z,100.00
2022-12-12T16:28:11.542Z,100.00
2022-12-12T16:30:38.950Z,100.00
2022-12-12T16:33:24.164Z,100.00
2022-12-12T16:35:50.652Z,100.00
2022-12-12T16:38:17.463Z,100.00
2022-12-12T16:40:44.893Z,100.00
2022-12-12T16:43:12.844Z,100.00
2022-12-12T16:45:39.776Z,100.00
2022-12-12T16:48:31.289Z,100.00
2022-12-12T16:51:00.862Z,100.00
2022-12-12T16:53:27.387Z,100.00
2022-12-12T16:55:54.449Z,100.00
2022-12-12T16:58:23.750Z,100.00
2022-12-12T17:00:52.780Z,100.00
2022-12-12T17:03:19.926Z,100.00
2022-12-12T17:05:47.086Z,100.00
2022-12-12T17:08:15.835Z,100.00
2022-12-12T17:10:43.266Z,100.00
2022-12-12T17:13:14.922Z,100.00
2022-12-12T17:15:41.457Z,100.00
2022-12-12T17:18:07.915Z,100.00
2022-12-12T17:20:37.470Z,100.00
2022-12-12T17:25:49.915Z,100.00
2022-12-12T17:28:18.731Z,100.00
2022-12-12T17:30:46.000Z,100.00
2022-12-12T17:33:18.334Z,100.00
2022-12-12T17:35:45.121Z,100.00
2022-12-12T17:38:16.198Z,100.00
2022-12-12T17:40:43.323Z,100.00
2022-12-12T17:43:09.809Z,100.00
2022-12-12T17:45:36.358Z,100.00
2022-12-12T17:48:04.629Z,100.00
2022-12-12T17:50:31.238Z,100.00
2022-12-12T17:52:57.793Z,100.00
2022-12-12T17:55:52.336Z,100.00
2022-12-12T17:58:10.694Z,100.00
2022-12-12T18:00:37.707Z,100.00
2022-12-12T18:03:04.201Z,100.00
2022-12-12T18:05:31.935Z,100.00
2022-12-12T18:07:58.472Z,100.00
2022-12-12T18:10:24.982Z,100.00
2022-12-12T18:12:51.916Z,100.00
2022-12-12T18:15:18.771Z,100.00
2022-12-12T18:17:45.240Z,100.00
2022-12-12T18:20:12.095Z,100.00
2022-12-12T18:22:38.897Z,100.00
2022-12-12T18:25:06.033Z,100.00
2022-12-12T18:27:32.496Z,100.00
2022-12-12T18:29:58.957Z,100.00
2022-12-12T18:32:25.455Z,100.00
2022-12-12T18:34:51.905Z,100.00
2022-12-12T18:37:18.386Z,100.00
2022-12-12T18:39:44.915Z,100.00
2022-12-12T18:42:11.958Z,100.00
2022-12-12T18:44:38.438Z,100.00
2022-12-12T18:47:04.966Z,100.00
2022-12-12T18:49:31.430Z,100.00
2022-12-12T18:51:57.946Z,100.00
2022-12-12T18:54:24.653Z,100.00
2022-12-12T18:56:51.182Z,100.00
2022-12-12T18:59:17.714Z,100.00
2022-12-12T19:01:44.285Z,100.00
2022-12-12T19:04:14.342Z,100.00
2022-12-12T19:06:44.238Z,100.00
2022-12-12T19:09:15.336Z,100.00
2022-12-12T19:11:41.830Z,100.00
2022-12-12T19:14:08.470Z,100.00
2022-12-12T19:16:35.055Z,100.00
2022-12-12T19:19:01.709Z,100.00
2022-12-12T19:21:28.278Z,100.00
2022-12-12T19:23:54.840Z,100.00
2022-12-12T19:26:25.999Z,100.00
2022-12-12T19:28:56.534Z,100.00
2022-12-12T19:31:23.095Z,100.00
2022-12-12T19:33:49.883Z,100.00
2022-12-12T19:36:21.176Z,100.00
2022-12-12T19:38:47.727Z,100.00
2022-12-12T19:41:15.121Z,100.00
2022-12-12T19:43:42.383Z,100.00
2022-12-12T19:46:16.938Z,100.00
2022-12-12T19:48:43.800Z,100.00
2022-12-12T19:51:14.954Z,100.00
2022-12-12T19:53:46.611Z,100.00
2022-12-12T19:56:14.445Z,100.00
2022-12-12T19:58:41.262Z,100.00
2022-12-12T20:01:12.433Z,100.00
2022-12-12T20:03:40.373Z,100.00
2022-12-12T20:06:08.777Z,100.00
2022-12-12T20:08:35.602Z,100.00
2022-12-12T20:11:10.253Z,100.00
2022-12-12T20:13:36.859Z,100.00
2022-12-12T20:16:07.803Z,100.00
2022-12-12T20:18:34.367Z,100.00
2022-12-12T20:21:03.869Z,100.00
2022-12-12T20:23:31.262Z,100.00
2022-12-12T20:25:57.946Z,100.00
2022-12-12T20:28:24.466Z,100.00
2022-12-12T20:30:53.601Z,100.00
2022-12-12T20:33:20.281Z,100.00
2022-12-12T20:35:46.763Z,100.00
2022-12-12T20:38:13.373Z,100.00
2022-12-12T20:40:39.910Z,100.00
2022-12-12T20:43:06.524Z,100.00
2022-12-12T20:45:35.938Z,100.00
2022-12-12T20:48:07.401Z,100.00
2022-12-12T20:50:34.288Z,100.00
2022-12-12T20:53:00.807Z,100.00
2022-12-12T20:55:27.311Z,100.00
2022-12-12T20:57:54.233Z,100.00
2022-12-12T21:00:20.767Z,100.00
2022-12-12T21:02:47.313Z,100.00
2022-12-12T21:05:13.902Z,100.00
2022-12-12T21:07:40.873Z,100.00
2022-12-12T21:10:07.571Z,100.00
2022-12-12T21:12:34.292Z,100.00
2022-12-12T21:15:02.893Z,100.00
2022-12-12T21:17:30.238Z,100.00
2022-12-12T21:20:00.474Z,100.00
2022-12-12T21:22:29.937Z,100.00
2022-12-12T21:24:56.431Z,100.00
2022-12-12T21:27:22.924Z,100.00
2022-12-12T21:29:49.398Z,100.00
2022-12-12T21:32:15.867Z,100.00
2022-12-12T21:34:42.398Z,100.00
2022-12-12T21:37:08.890Z,100.00
2022-12-12T21:39:35.631Z,100.00
2022-12-12T21:42:02.108Z,100.00
2022-12-12T21:44:28.613Z,100.00
2022-12-12T21:46:55.173Z,100.00
2022-12-12T21:49:27.963Z,100.00
2022-12-12T21:51:55.728Z,100.00
2022-12-12T21:54:22.354Z,100.00
2022-12-12T21:56:48.837Z,100.00
2022-12-12T21:59:15.378Z,100.00
2022-12-12T22:01:42.083Z,100.00
2022-12-12T22:04:09.725Z,100.00
2022-12-12T22:06:36.447Z,100.00
2022-12-12T22:09:05.825Z,100.00
2022-12-12T22:11:40.760Z,100.00
2022-12-12T22:14:18.283Z,100.00
2022-12-12T22:16:44.859Z,100.00
2022-12-12T22:19:12.226Z,100.00
2022-12-12T22:21:38.700Z,100.00
2022-12-12T22:24:05.819Z,100.00
2022-12-12T22:26:34.330Z,100.00
2022-12-12T22:29:02.477Z,100.00
2022-12-12T22:31:31.016Z,100.00
2022-12-12T22:33:59.487Z,100.00
2022-12-12T22:36:33.921Z,100.00
2022-12-12T22:39:00.586Z,100.00
2022-12-12T22:41:27.737Z,100.00
2022-12-12T22:43:59.090Z,100.00
2022-12-12T22:46:26.281Z,100.00
2022-12-12T22:48:54.015Z,100.00
2022-12-12T22:51:25.268Z,100.00
2022-12-12T22:53:51.900Z,100.00
2022-12-12T22:56:18.375Z,100.00
2022-12-12T22:58:44.870Z,100.00
2022-12-12T23:01:13.594Z,100.00
2022-12-12T23:03:40.152Z,100.00
2022-12-12T23:06:09.269Z,100.00
2022-12-12T23:08:35.771Z,100.00
2022-12-12T23:11:13.211Z,100.00
2022-12-12T23:13:42.609Z,100.00
2022-12-12T23:16:10.562Z,100.00
2022-12-12T23:18:37.772Z,100.00
2022-12-12T23:21:05.696Z,100.00
2022-12-12T23:23:34.144Z,100.00
2022-12-12T23:26:04.935Z,100.00
2022-12-12T23:28:31.481Z,100.00
2022-12-12T23:30:58.264Z,100.00
2022-12-12T23:33:24.766Z,100.00
2022-12-12T23:35:51.771Z,100.00
2022-12-12T23:38:18.335Z,100.00
2022-12-12T23:40:45.830Z,100.00
2022-12-12T23:43:12.354Z,100.00
2022-12-12T23:45:39.302Z,100.00
2022-12-12T23:48:06.149Z,100.00
2022-12-12T23:50:32.942Z,100.00
2022-12-12T23:52:59.620Z,100.00
2022-12-12T23:55:26.068Z,100.00
2022-12-12T23:57:52.531Z,100.00
